This is the latest recevied weather packets stored in our database for station/object N4PWG. If no packets are shown the sender has not sent any weather packets the latest 10 day(s).
| Time | Temp. | Humidity | Pressure | Rain* | Wind** | Luminosity | Snow |
|---|---|---|---|---|---|---|---|
| 1777831955 | 21.67° C | 44% | 1037 hPa | 0 mm | - | 716 W/m² | - |
| 1777831652 | 21.67° C | 47% | 1037.1 hPa | 0 mm | - | 724 W/m² | - |
| 1777831350 | 21.11° C | 42% | 1036.9 hPa | 0 mm | - | 726 W/m² | - |
| 1777831046 | 20.56° C | 48% | 1037.2 hPa | 0 mm | - | 710 W/m² | - |
| 1777830745 | 21.11° C | 42% | 1037.2 hPa | 0 mm | - | 719 W/m² | - |
| 1777830440 | 21.11° C | 45% | 1037.5 hPa | 0 mm | - | 728 W/m² | - |
| 1777830138 | 21.67° C | 41% | 1037.4 hPa | 0 mm | - | 700 W/m² | - |
| 1777829833 | 21.11° C | 42% | 1037.5 hPa | 0 mm | - | 695 W/m² | - |
| 1777829529 | 21.11° C | 45% | 1037.7 hPa | 0 mm | - | 723 W/m² | - |
| 1777829226 | 20.56° C | 44% | 1037.6 hPa | 0 mm | - | 712 W/m² | - |
| 1777828923 | 20.56° C | 45% | 1037.7 hPa | 0 mm | - | 734 W/m² | - |
| 1777828620 | 20° C | 43% | 1037.7 hPa | 0 mm | - | 734 W/m² | - |
| 1777828317 | 20.56° C | 44% | 1037.8 hPa | 0 mm | - | 713 W/m² | - |
| 1777828014 | 20.56° C | 47% | 1037.9 hPa | 0 mm | - | 714 W/m² | - |
| 1777827711 | 20° C | 46% | 1037.8 hPa | 0 mm | - | 695 W/m² | - |
| 1777827408 | 20° C | 46% | 1038 hPa | 0 mm | - | 683 W/m² | - |
| 1777827104 | 20° C | 47% | 1038 hPa | 0 mm | - | 684 W/m² | - |
| 1777826801 | 20° C | 48% | 1038.1 hPa | 0 mm | - | 660 W/m² | - |
| 1777826498 | 20.56° C | 44% | 1038.2 hPa | 0 mm | - | 631 W/m² | - |
| 1777826195 | 20° C | 47% | 1038.4 hPa | 0 mm | - | 629 W/m² | - |
| 1777825892 | 20° C | 45% | 1038.3 hPa | 0 mm | - | 626 W/m² | - |
| 1777825589 | 19.44° C | 48% | 1038.5 hPa | 0 mm | - | 634 W/m² | - |
| 1777825287 | 19.44° C | 45% | 1038.5 hPa | 0 mm | - | 603 W/m² | - |
| 1777824984 | 19.44° C | 46% | 1038.4 hPa | 0 mm | - | 570 W/m² | - |
| 1777824679 | 18.89° C | 50% | 1038.6 hPa | 0 mm | - | 558 W/m² | - |
* Rain latest hour (hover to see other rain measurements)
** Current wind speed in m/s (hover to see current wind gust speed)